Hlavní strana
METAR-TAF:

METAR-TAF

Letiště :

Letecká základna

Linköping, Švédsko

zeměpisná šířka: 58-24N, zeměpisná délka: 015-31E, výška: 93 m

Aktuální stav počasí

Zpráva byla vytvořena před 16 minutami, v 14:50 UTC
Západní vítr 16 kt
Teplota 5°C
Vlhkost vzduchu 45%
Tlak 1020 hPa
Viditelnost 10 km a více
Žádná oblačnost pod 1500 m, nevyskytují se cumulonimby.

METAR: ESCF 191450Z 27016KT CAVOK 05/M06 Q1020

Čas: 16:06 (15:06 UTC)

Předpověď počasí

Zpráva byla vytvořena před 3 hodinami a 36 minutami, v 11:30 UTC
Předpověď platná od 19 v 12 UTC do 19 v 16 UTC
Severozápadní vítr 10 kt s nárazy do 18 kt
Viditelnost 10 km a více
Žádná oblačnost pod 1500 m, nevyskytují se cumulonimby.
Změna
od 19 v 14 UTC do 19 v 16 UTC
Západní vítr 8 kt

TAF: ESCF 191130Z 1912/1916 31010G18KT CAVOK BECMG 1914/1916 27008KT RMK MIL

Stav a předpovědi počasí z více než 4 000 letišť (zprávy METAR a TAF).

Červené a žluté tečky na mapě představují dostupné meteorologické stanice.

Když kurzor umístíte na tečku, zobrazí se název stanice.

Pak kliknutím zobrazíte stav a předpověď počasí.

Chcete-li změnit mapu, kliknutím na zelené tlačítko se znaménkem +mapu přiblížíte, kliknutím na zelené tlačítko se znaménkem – mapu oddálíte a kliknutím na zelené šipky přejdete na sousední mapy.


METAR-TAF: